Terminal Aerodrome Forecast
Issued by NWS Corpus Christi, TX

Home | Current Version | Previous Version | Text Only | Print | Product List | Glossary On
Versions: 1 2 3 4 5 6 7 8 9 10 11 12 13 14 15 16 17 18 19 20 21 22 23 24
000
FTUS44 KCRP 190532
TAFCRP
TAF
KCRP 190532Z 1906/2006 18008KT P6SM BKN008
     FM190800 17005KT 4SM BR OVC008
     FM191400 19012KT P6SM BKN015
     FM191800 17012KT P6SM SCT025 SCT250
     FM200000 16005KT P6SM SCT015=

USA.gov is the U.S. government's official web portal to all federal, state and local government web resources and services.